Trine Charlotte — LMRY — position and weather

sailwx.info

Track history (hours):
 
Tides and Currents Weather Stations Pressure Air Temp Water Temp Dewpoint Dewpoint Depression Visibility Wind Speed Wind Dir Waves Ship Positions

Trine Charlotte

Last reported at 2017-Feb-26 18:33 UTC. Time now 2017-Feb-26 19:13 UTC.
Position N 66°12' E 012°52'.

Length 66 m; draft 4.4 m.

Type: Cargo ship. MMSI: 257233000.

Date/timePositionNaut miles runAvg speedWind from/ knotsBaromVisibWave heightAir tempDewpointWater temp
2017-Feb-26 18:33N 66°12' E 012°52'8 7.9
2017-Feb-26 17:33N 66°05' E 012°41'9 8.6
2017-Feb-26 16:33N 65°58' E 012°28'8 8.2
2017-Feb-26 15:33N 65°51' E 012°22'9 8.8
2017-Feb-26 14:33N 65°42' E 012°16'8 8.3
2017-Feb-26 13:33N 65°35' E 012°08'8 8.5
2017-Feb-26 12:33N 65°27' E 011°57'8 7.8
2017-Feb-26 11:33N 65°20' E 012°01'9 9.0
2017-Feb-26 10:33N 65°12' E 011°52'9 8.9
2017-Feb-26 09:33N 65°03' E 011°45'8 8.3
2017-Feb-26 08:33N 64°57' E 011°31'9 8.9
2017-Feb-26 07:33N 64°52' E 011°15'9 9.0
2017-Feb-26 06:33N 64°45' E 011°00'8 8.1
2017-Feb-26 05:33N 64°39' E 010°47'9 8.9
2017-Feb-26 04:33N 64°32' E 010°36'9 8.8
2017-Feb-26 03:33N 64°24' E 010°26'9 8.8
2017-Feb-26 02:33N 64°16' E 010°20'9 8.6
2017-Feb-26 01:33N 64°09' E 010°07'9 9.0
2017-Feb-26 00:33N 64°04' E 009°51'9 8.8
2017-Feb-25 23:33N 63°55' E 009°47'9 9.1
2017-Feb-25 22:33N 63°48' E 009°34'9 8.9
2017-Feb-25 21:33N 63°39' E 009°29'8 7.6
2017-Feb-25 20:33N 63°39' E 009°46'9 9.5
2017-Feb-25 19:33N 63°30' E 009°55'8 8.4
2017-Feb-25 18:33N 63°28' E 010°13'5 4.5
2017-Feb-25 17:33N 63°26' E 010°22'0 0.0
2017-Feb-25 16:33N 63°26' E 010°22'0 0.0
2017-Feb-25 15:33N 63°26' E 010°22'4 3.8
2017-Feb-25 14:33N 63°28' E 010°15'7 7.4
2017-Feb-25 13:33N 63°29' E 009°58'7 7.0
2017-Feb-25 12:33N 63°35' E 009°50'6 5.8
2017-Feb-25 11:33N 63°39' E 009°40'7 7.3
2017-Feb-25 10:33N 63°35' E 009°26'8 8.2
2017-Feb-25 09:33N 63°31' E 009°10'9 8.5
2017-Feb-25 08:33N 63°28' E 008°53'8 8.3
2017-Feb-25 07:33N 63°24' E 008°35'9 8.9
2017-Feb-25 06:33N 63°20' E 008°18'9 9.4
2017-Feb-25 05:33N 63°14' E 008°01'9 9.0
2017-Feb-25 04:33N 63°10' E 007°44'9 8.7
2017-Feb-25 03:33N 63°05' E 007°28'9 8.7
2017-Feb-25 02:33N 63°02' E 007°10'9 8.7
2017-Feb-25 01:33N 62°58' E 006°53'8 8.2
2017-Feb-25 00:33N 62°52' E 006°42'9 9.2
2017-Feb-24 23:33N 62°44' E 006°31'9 9.3
2017-Feb-24 22:33N 62°37' E 006°18'8 8.4
2017-Feb-24 21:33N 62°29' E 006°09'1 1.2
2017-Feb-24 20:33N 62°29' E 006°12'0 0.0
2017-Feb-24 19:33N 62°29' E 006°12'0 0.0
2017-Feb-24 18:33N 62°29' E 006°12'0 0.0
2017-Feb-24 17:33N 62°29' E 006°12'0 0.0
2017-Feb-24 16:33N 62°29' E 006°12'3 2.5
2017-Feb-24 15:33N 62°29' E 006°06'9 8.9
2017-Feb-24 14:33N 62°24' E 005°49'8 8.1
2017-Feb-24 13:32N 62°19' E 005°36'8 8.6
2017-Feb-24 12:33N 62°16' E 005°19'7 7.3
2017-Feb-24 11:33N 62°12' E 005°06'6 5.8
2017-Feb-24 10:33N 62°06' E 005°06'8 8.6
2017-Feb-24 09:33N 61°58' E 005°09'8 7.9
2017-Feb-24 08:33N 61°51' E 005°16'9 8.9
2017-Feb-24 07:33N 61°45' E 005°01'9 8.4
2017-Feb-24 06:33N 61°37' E 004°59'8 8.4
2017-Feb-24 05:33N 61°29' E 004°59'9 8.8
2017-Feb-24 04:33N 61°21' E 004°49'9 8.6
2017-Feb-24 03:32N 61°13' E 004°42'9 8.8
2017-Feb-24 02:33N 61°04' E 004°44'9 8.8
2017-Feb-24 01:33N 60°56' E 004°46'8 8.1
2017-Feb-24 00:33N 60°48' E 004°46'8 8.3
2017-Feb-23 23:33N 60°40' E 004°53'9 9.2
2017-Feb-23 22:33N 60°36' E 005°09'8 8.3
2017-Feb-23 21:33N 60°34' E 005°26'3 3.0
2017-Feb-23 20:33N 60°32' E 005°29'0 0.0
2017-Feb-23 19:33N 60°32' E 005°29'0 0.0
2017-Feb-23 18:33N 60°32' E 005°29'0 0.0
2017-Feb-23 17:33N 60°32' E 005°29'0 0.0
2017-Feb-23 16:33N 60°32' E 005°29'0 0.0
2017-Feb-23 15:33N 60°32' E 005°29'0 0.0
2017-Feb-23 14:33N 60°32' E 005°29'0 0.0
2017-Feb-23 13:33N 60°32' E 005°29'0 0.0
2017-Feb-23 12:33N 60°32' E 005°29'0 0.0
2017-Feb-23 11:33N 60°32' E 005°29'0 0.0
2017-Feb-23 10:33N 60°32' E 005°29'0 0.0
2017-Feb-23 09:33N 60°32' E 005°29'0 0.0
2017-Feb-23 08:33N 60°32' E 005°29'0 0.0
2017-Feb-23 07:32N 60°32' E 005°29'0 0.0
2017-Feb-23 06:33N 60°32' E 005°29'0 0.0
2017-Feb-23 05:33N 60°32' E 005°29'0 0.0
2017-Feb-23 04:33N 60°32' E 005°29'0 0.0
2017-Feb-23 03:33N 60°32' E 005°29'2 1.7
2017-Feb-23 02:33N 60°33' E 005°27'6 6.3
2017-Feb-23 01:33N 60°33' E 005°14'8 8.2
2017-Feb-23 00:33N 60°37' E 005°00'8 7.4
2017-Feb-22 23:33N 60°43' E 004°49'8 8.3
2017-Feb-22 22:33N 60°50' E 004°44'8 7.9
2017-Feb-22 21:33N 60°58' E 004°45'9 9.0
2017-Feb-22 20:33N 61°07' E 004°45'8 7.9
2017-Feb-22 19:33N 61°15' E 004°45'8 8.3
2017-Feb-22 18:33N 61°23' E 004°50'7 7.2
2017-Feb-22 17:33N 61°29' E 004°59'7 7.1
2017-Feb-22 16:33N 61°36' E 004°58'2 2.5
2017-Feb-22 15:33N 61°36' E 005°03'0 0.0
2017-Feb-22 14:33N 61°36' E 005°03'0 0.0
2017-Feb-22 13:33N 61°36' E 005°03'0 0.0
2017-Feb-22 12:33N 61°36' E 005°03'0 0.0
2017-Feb-22 11:33N 61°36' E 005°03'0 0.0
2017-Feb-22 10:33N 61°36' E 005°03'0 0.0
2017-Feb-22 09:33N 61°36' E 005°03'0 0.0
2017-Feb-22 08:33N 61°36' E 005°03'0 0.0
2017-Feb-22 07:34N 61°36' E 005°03'0 0.0
2017-Feb-22 06:33N 61°36' E 005°03'0 0.0
2017-Feb-22 05:33N 61°36' E 005°03'0 0.0
2017-Feb-22 04:33N 61°36' E 005°03'0 0.0
2017-Feb-22 03:33N 61°36' E 005°03'0 0.0
2017-Feb-22 02:33N 61°36' E 005°03'0 0.0
2017-Feb-22 01:33N 61°36' E 005°03'0 0.0
2017-Feb-22 00:29N 61°36' E 005°03'0 0.0
2017-Feb-21 23:33N 61°36' E 005°03'0 0.0
2017-Feb-21 22:32N 61°36' E 005°03'0 0.0
2017-Feb-21 21:33N 61°36' E 005°03'0 0.0
2017-Feb-21 20:33N 61°36' E 005°03'0 0.0
2017-Feb-21 19:27N 61°36' E 005°03'1 0.7
2017-Feb-21 18:33N 61°36' E 005°02'5 5.4
2017-Feb-21 17:33N 61°41' E 004°58'7 6.8
2017-Feb-21 16:33N 61°47' E 005°05'7 6.8
2017-Feb-21 15:34N 61°51' E 005°16'6 6.3
2017-Feb-21 14:33N 61°57' E 005°08'7 7.4
2017-Feb-21 13:33N 62°04' E 005°07'7 6.7
2017-Feb-21 12:34N 62°10' E 005°03'7 6.5
2017-Feb-21 11:33N 62°15' E 005°14'7 7.2
2017-Feb-21 10:33N 62°18' E 005°28'8 7.6
2017-Feb-21 09:33N 62°19' E 005°44'8 7.6
2017-Feb-21 08:33N 62°26' E 005°53'8 7.9
2017-Feb-21 07:34N 62°29' E 006°08'8 8.0
2017-Feb-21 06:33N 62°36' E 006°17'8 8.3
2017-Feb-21 05:33N 62°43' E 006°29'8 8.5
2017-Feb-21 04:33N 62°50' E 006°39'8 8.4
2017-Feb-21 03:33N 62°56' E 006°50'8 7.8
2017-Feb-21 02:33N 63°01' E 007°04'8 8.4
2017-Feb-21 01:33N 63°04' E 007°21'9 8.8
2017-Feb-21 00:33N 63°08' E 007°38'9 8.6
2017-Feb-20 23:34N 63°13' E 007°54'9 8.7
2017-Feb-20 22:34N 63°17' E 008°10'9 8.6
2017-Feb-20 21:32N 63°23' E 008°26'9 8.9
2017-Feb-20 20:33N 63°26' E 008°44'9 8.9
2017-Feb-20 19:33N 63°29' E 009°02'7 7.4
2017-Feb-20 18:33N 63°34' E 009°15'8 8.3
2017-Feb-20 17:34N 63°42' E 009°16'8 8.0
2017-Feb-20 16:33N 63°50' E 009°22'8 8.4
2017-Feb-20 15:33N 63°56' E 009°35'9 8.5
2017-Feb-20 14:33N 64°02' E 009°48'9 8.9
2017-Feb-20 13:33N 64°08' E 010°04'9 8.7
2017-Feb-20 12:33N 64°14' E 010°16'1 0.3
2017-Feb-20 07:32N 64°15' E 010°19'8 8.3
2017-Feb-20 06:33N 64°23' E 010°24'8 8.0
2017-Feb-20 05:33N 64°30' E 010°33'8 8.5
2017-Feb-20 04:34N 64°37' E 010°43'9 8.5
2017-Feb-20 03:33N 64°44' E 010°56'9 8.8
2017-Feb-20 02:34N 64°50' E 011°10'8 7.9
2017-Feb-20 01:34N 64°55' E 011°24'9 8.5
2017-Feb-20 00:33N 65°01' E 011°39'9 8.8
2017-Feb-19 23:33N 65°08' E 011°49'9 8.9
2017-Feb-19 22:34N 65°17' E 011°57'9 9.2
2017-Feb-19 21:33N 65°25' E 012°08'9 8.6
2017-Feb-19 20:33N 65°33' E 012°13'9 9.1
2017-Feb-19 19:33N 65°42' E 012°17'9 8.9
2017-Feb-19 18:33N 65°51' E 012°22'8 8.4
2017-Feb-19 17:33N 65°59' E 012°28'9 9.0
2017-Feb-19 16:33N 66°06' E 012°42'9 8.9
2017-Feb-19 15:33N 66°13' E 012°53'9 8.9
2017-Feb-19 14:31N 66°22' E 012°58'9 8.8
2017-Feb-19 13:33N 66°31' E 012°58'8 7.8
2017-Feb-19 12:33N 66°38' E 013°06'9 8.7
2017-Feb-19 11:33N 66°46' E 013°13'8 8.4
2017-Feb-19 10:33N 66°53' E 013°24'8 7.9
2017-Feb-19 09:33N 66°59' E 013°37'9 8.9
2017-Feb-19 08:33N 67°05' E 013°55'9 8.5
2017-Feb-19 07:33N 67°12' E 014°06'9 8.6
2017-Feb-19 06:33N 67°19' E 014°19'8 8.5
2017-Feb-19 05:34N 67°27' E 014°28'9 8.6
2017-Feb-19 04:33N 67°36' E 014°30'8 8.5
2017-Feb-19 03:33N 67°44' E 014°31'8 7.9
2017-Feb-19 02:33N 67°51' E 014°41'8 8.3
2017-Feb-19 01:33N 67°58' E 014°52'9 8.8
2017-Feb-19 00:33N 68°04' E 015°09'9 8.7
2017-Feb-18 23:33N 68°10' E 015°26'9 8.8
2017-Feb-18 22:33N 68°16' E 015°43'9 8.8
2017-Feb-18 21:33N 68°23' E 015°59'9 9.0
2017-Feb-18 20:33N 68°31' E 016°10'8 7.7
2017-Feb-18 19:33N 68°33' E 016°30'7 7.3
2017-Feb-18 18:33N 68°40' E 016°38'8 7.7
2017-Feb-18 17:33N 68°48' E 016°37'2 1.6
2017-Feb-18 16:33N 68°48' E 016°33'0 0.0
2017-Feb-18 15:33N 68°48' E 016°33'8 7.9
2017-Feb-18 14:33N 68°53' E 016°49'9 9.0
2017-Feb-18 13:33N 68°59' E 017°09'9 8.8
2017-Feb-18 12:33N 69°05' E 017°24'9 8.8
2017-Feb-18 11:34N 69°09' E 017°47'7 6.6
2017-Feb-18 10:33N 69°14' E 017°57'8 8.0
2017-Feb-18 09:32N 69°22' E 018°06'8 7.6
2017-Feb-18 08:33N 69°29' E 018°11'9 8.7
2017-Feb-18 07:33N 69°32' E 018°34'9 8.5
2017-Feb-18 06:32N 69°37' E 018°54'6 5.6
2017-Feb-18 05:33N 69°42' E 019°01'7 7.0
2017-Feb-18 04:33N 69°47' E 019°15'8 8.3
2017-Feb-18 03:33N 69°50' E 019°38'8 8.0
2017-Feb-18 02:33N 69°54' E 019°57'7 7.2
2017-Feb-18 01:33N 69°59' E 020°14'6 6.2
2017-Feb-18 00:34N 70°01' E 020°30'6 6.2
2017-Feb-17 23:33N 70°03' E 020°48'6 5.9
2017-Feb-17 22:33N 70°07' E 020°59'8 7.7
2017-Feb-17 21:33N 70°14' E 021°10'8 8.1
2017-Feb-17 20:33N 70°19' E 021°28'7 7.2
2017-Feb-17 19:34N 70°24' E 021°45'9 8.7
2017-Feb-17 18:33N 70°20' E 022°08'9 9.1
2017-Feb-17 17:33N 70°15' E 022°32'9 9.0
2017-Feb-17 16:33N 70°13' E 022°57'9 9.1
2017-Feb-17 15:33N 70°04' E 023°07'7 6.9
2017-Feb-17 14:33N 69°58' E 023°13'0 0.0
2017-Feb-17 13:33N 69°58' E 023°13'0 0.0
2017-Feb-17 12:33N 69°58' E 023°13'0 0.0
2017-Feb-17 11:33N 69°58' E 023°13'0 0.0
2017-Feb-17 10:33N 69°58' E 023°13'0 0.0
2017-Feb-17 09:33N 69°58' E 023°13'0 0.0
2017-Feb-17 08:34N 69°58' E 023°13'0 0.0
2017-Feb-17 07:33N 69°58' E 023°13'0 0.0
2017-Feb-17 06:33N 69°58' E 023°13'0 0.0
2017-Feb-17 05:34N 69°58' E 023°13'0 0.0
2017-Feb-17 04:33N 69°58' E 023°13'0 0.0
2017-Feb-17 03:33N 69°58' E 023°13'0 0.0
2017-Feb-17 02:33N 69°58' E 023°13'0 0.0
2017-Feb-17 01:33N 69°58' E 023°13'0 0.0
2017-Feb-17 00:33N 69°58' E 023°13'2 2.0
2017-Feb-16 23:33N 69°60' E 023°11'8 7.6
2017-Feb-16 22:33N 70°07' E 023°04'8 8.1
2017-Feb-16 21:33N 70°13' E 022°50'8 8.4
2017-Feb-16 20:34N 70°16' E 022°27'9 8.7
2017-Feb-16 19:33N 70°20' E 022°04'  
Track history (hours):
 
Tides and Currents Weather Stations Pressure Air Temp Water Temp Dewpoint Dewpoint Depression Visibility Wind Speed Wind Dir Waves Ship Positions

Trine Charlotte

Last reported at 2017-Feb-26 18:33 UTC. Time now 2017-Feb-26 19:13 UTC.
Position N 66°12' E 012°52'.

Length 66 m; draft 4.4 m.

Type: Cargo ship. MMSI: 257233000.

Date/timePositionNaut miles runAvg speedWind from/ knotsBaromVisibWave heightAir tempDewpointWater temp
2017-Feb-26 18:33N 66°12' E 012°52'8 7.9
2017-Feb-26 17:33N 66°05' E 012°41'9 8.6
2017-Feb-26 16:33N 65°58' E 012°28'8 8.2
2017-Feb-26 15:33N 65°51' E 012°22'9 8.8
2017-Feb-26 14:33N 65°42' E 012°16'8 8.3
2017-Feb-26 13:33N 65°35' E 012°08'8 8.5
2017-Feb-26 12:33N 65°27' E 011°57'8 7.8
2017-Feb-26 11:33N 65°20' E 012°01'9 9.0
2017-Feb-26 10:33N 65°12' E 011°52'9 8.9
2017-Feb-26 09:33N 65°03' E 011°45'8 8.3
2017-Feb-26 08:33N 64°57' E 011°31'9 8.9
2017-Feb-26 07:33N 64°52' E 011°15'9 9.0
2017-Feb-26 06:33N 64°45' E 011°00'8 8.1
2017-Feb-26 05:33N 64°39' E 010°47'9 8.9
2017-Feb-26 04:33N 64°32' E 010°36'9 8.8
2017-Feb-26 03:33N 64°24' E 010°26'9 8.8
2017-Feb-26 02:33N 64°16' E 010°20'9 8.6
2017-Feb-26 01:33N 64°09' E 010°07'9 9.0
2017-Feb-26 00:33N 64°04' E 009°51'9 8.8
2017-Feb-25 23:33N 63°55' E 009°47'9 9.1
2017-Feb-25 22:33N 63°48' E 009°34'9 8.9
2017-Feb-25 21:33N 63°39' E 009°29'8 7.6
2017-Feb-25 20:33N 63°39' E 009°46'9 9.5
2017-Feb-25 19:33N 63°30' E 009°55'8 8.4
2017-Feb-25 18:33N 63°28' E 010°13'5 4.5
2017-Feb-25 17:33N 63°26' E 010°22'0 0.0
2017-Feb-25 16:33N 63°26' E 010°22'0 0.0
2017-Feb-25 15:33N 63°26' E 010°22'4 3.8
2017-Feb-25 14:33N 63°28' E 010°15'7 7.4
2017-Feb-25 13:33N 63°29' E 009°58'7 7.0
2017-Feb-25 12:33N 63°35' E 009°50'6 5.8
2017-Feb-25 11:33N 63°39' E 009°40'7 7.3
2017-Feb-25 10:33N 63°35' E 009°26'8 8.2
2017-Feb-25 09:33N 63°31' E 009°10'9 8.5
2017-Feb-25 08:33N 63°28' E 008°53'8 8.3
2017-Feb-25 07:33N 63°24' E 008°35'9 8.9
2017-Feb-25 06:33N 63°20' E 008°18'9 9.4
2017-Feb-25 05:33N 63°14' E 008°01'9 9.0
2017-Feb-25 04:33N 63°10' E 007°44'9 8.7
2017-Feb-25 03:33N 63°05' E 007°28'9 8.7
2017-Feb-25 02:33N 63°02' E 007°10'9 8.7
2017-Feb-25 01:33N 62°58' E 006°53'8 8.2
2017-Feb-25 00:33N 62°52' E 006°42'9 9.2
2017-Feb-24 23:33N 62°44' E 006°31'9 9.3
2017-Feb-24 22:33N 62°37' E 006°18'8 8.4
2017-Feb-24 21:33N 62°29' E 006°09'1 1.2
2017-Feb-24 20:33N 62°29' E 006°12'0 0.0
2017-Feb-24 19:33N 62°29' E 006°12'0 0.0
2017-Feb-24 18:33N 62°29' E 006°12'0 0.0
2017-Feb-24 17:33N 62°29' E 006°12'0 0.0
2017-Feb-24 16:33N 62°29' E 006°12'3 2.5
2017-Feb-24 15:33N 62°29' E 006°06'9 8.9
2017-Feb-24 14:33N 62°24' E 005°49'8 8.1
2017-Feb-24 13:32N 62°19' E 005°36'8 8.6
2017-Feb-24 12:33N 62°16' E 005°19'7 7.3
2017-Feb-24 11:33N 62°12' E 005°06'6 5.8
2017-Feb-24 10:33N 62°06' E 005°06'8 8.6
2017-Feb-24 09:33N 61°58' E 005°09'8 7.9
2017-Feb-24 08:33N 61°51' E 005°16'9 8.9
2017-Feb-24 07:33N 61°45' E 005°01'9 8.4
2017-Feb-24 06:33N 61°37' E 004°59'8 8.4
2017-Feb-24 05:33N 61°29' E 004°59'9 8.8
2017-Feb-24 04:33N 61°21' E 004°49'9 8.6
2017-Feb-24 03:32N 61°13' E 004°42'9 8.8
2017-Feb-24 02:33N 61°04' E 004°44'9 8.8
2017-Feb-24 01:33N 60°56' E 004°46'8 8.1
2017-Feb-24 00:33N 60°48' E 004°46'8 8.3
2017-Feb-23 23:33N 60°40' E 004°53'9 9.2
2017-Feb-23 22:33N 60°36' E 005°09'8 8.3
2017-Feb-23 21:33N 60°34' E 005°26'3 3.0
2017-Feb-23 20:33N 60°32' E 005°29'0 0.0
2017-Feb-23 19:33N 60°32' E 005°29'0 0.0
2017-Feb-23 18:33N 60°32' E 005°29'0 0.0
2017-Feb-23 17:33N 60°32' E 005°29'0 0.0
2017-Feb-23 16:33N 60°32' E 005°29'0 0.0
2017-Feb-23 15:33N 60°32' E 005°29'0 0.0
2017-Feb-23 14:33N 60°32' E 005°29'0 0.0
2017-Feb-23 13:33N 60°32' E 005°29'0 0.0
2017-Feb-23 12:33N 60°32' E 005°29'0 0.0
2017-Feb-23 11:33N 60°32' E 005°29'0 0.0
2017-Feb-23 10:33N 60°32' E 005°29'0 0.0
2017-Feb-23 09:33N 60°32' E 005°29'0 0.0
2017-Feb-23 08:33N 60°32' E 005°29'0 0.0
2017-Feb-23 07:32N 60°32' E 005°29'0 0.0
2017-Feb-23 06:33N 60°32' E 005°29'0 0.0
2017-Feb-23 05:33N 60°32' E 005°29'0 0.0
2017-Feb-23 04:33N 60°32' E 005°29'0 0.0
2017-Feb-23 03:33N 60°32' E 005°29'2 1.7
2017-Feb-23 02:33N 60°33' E 005°27'6 6.3
2017-Feb-23 01:33N 60°33' E 005°14'8 8.2
2017-Feb-23 00:33N 60°37' E 005°00'8 7.4
2017-Feb-22 23:33N 60°43' E 004°49'8 8.3
2017-Feb-22 22:33N 60°50' E 004°44'8 7.9
2017-Feb-22 21:33N 60°58' E 004°45'9 9.0
2017-Feb-22 20:33N 61°07' E 004°45'8 7.9
2017-Feb-22 19:33N 61°15' E 004°45'8 8.3
2017-Feb-22 18:33N 61°23' E 004°50'7 7.2
2017-Feb-22 17:33N 61°29' E 004°59'7 7.1
2017-Feb-22 16:33N 61°36' E 004°58'2 2.5
2017-Feb-22 15:33N 61°36' E 005°03'0 0.0
2017-Feb-22 14:33N 61°36' E 005°03'0 0.0
2017-Feb-22 13:33N 61°36' E 005°03'0 0.0
2017-Feb-22 12:33N 61°36' E 005°03'0 0.0
2017-Feb-22 11:33N 61°36' E 005°03'0 0.0
2017-Feb-22 10:33N 61°36' E 005°03'0 0.0
2017-Feb-22 09:33N 61°36' E 005°03'0 0.0
2017-Feb-22 08:33N 61°36' E 005°03'0 0.0
2017-Feb-22 07:34N 61°36' E 005°03'0 0.0
2017-Feb-22 06:33N 61°36' E 005°03'0 0.0
2017-Feb-22 05:33N 61°36' E 005°03'0 0.0
2017-Feb-22 04:33N 61°36' E 005°03'0 0.0
2017-Feb-22 03:33N 61°36' E 005°03'0 0.0
2017-Feb-22 02:33N 61°36' E 005°03'0 0.0
2017-Feb-22 01:33N 61°36' E 005°03'0 0.0
2017-Feb-22 00:29N 61°36' E 005°03'0 0.0
2017-Feb-21 23:33N 61°36' E 005°03'0 0.0
2017-Feb-21 22:32N 61°36' E 005°03'0 0.0
2017-Feb-21 21:33N 61°36' E 005°03'0 0.0
2017-Feb-21 20:33N 61°36' E 005°03'0 0.0
2017-Feb-21 19:27N 61°36' E 005°03'1 0.7
2017-Feb-21 18:33N 61°36' E 005°02'5 5.4
2017-Feb-21 17:33N 61°41' E 004°58'7 6.8
2017-Feb-21 16:33N 61°47' E 005°05'7 6.8
2017-Feb-21 15:34N 61°51' E 005°16'6 6.3
2017-Feb-21 14:33N 61°57' E 005°08'7 7.4
2017-Feb-21 13:33N 62°04' E 005°07'7 6.7
2017-Feb-21 12:34N 62°10' E 005°03'7 6.5
2017-Feb-21 11:33N 62°15' E 005°14'7 7.2
2017-Feb-21 10:33N 62°18' E 005°28'8 7.6
2017-Feb-21 09:33N 62°19' E 005°44'8 7.6
2017-Feb-21 08:33N 62°26' E 005°53'8 7.9
2017-Feb-21 07:34N 62°29' E 006°08'8 8.0
2017-Feb-21 06:33N 62°36' E 006°17'8 8.3
2017-Feb-21 05:33N 62°43' E 006°29'8 8.5
2017-Feb-21 04:33N 62°50' E 006°39'8 8.4
2017-Feb-21 03:33N 62°56' E 006°50'8 7.8
2017-Feb-21 02:33N 63°01' E 007°04'8 8.4
2017-Feb-21 01:33N 63°04' E 007°21'9 8.8
2017-Feb-21 00:33N 63°08' E 007°38'9 8.6
2017-Feb-20 23:34N 63°13' E 007°54'9 8.7
2017-Feb-20 22:34N 63°17' E 008°10'9 8.6
2017-Feb-20 21:32N 63°23' E 008°26'9 8.9
2017-Feb-20 20:33N 63°26' E 008°44'9 8.9
2017-Feb-20 19:33N 63°29' E 009°02'7 7.4
2017-Feb-20 18:33N 63°34' E 009°15'8 8.3
2017-Feb-20 17:34N 63°42' E 009°16'8 8.0
2017-Feb-20 16:33N 63°50' E 009°22'8 8.4
2017-Feb-20 15:33N 63°56' E 009°35'9 8.5
2017-Feb-20 14:33N 64°02' E 009°48'9 8.9
2017-Feb-20 13:33N 64°08' E 010°04'9 8.7
2017-Feb-20 12:33N 64°14' E 010°16'1 0.3
2017-Feb-20 07:32N 64°15' E 010°19'8 8.3
2017-Feb-20 06:33N 64°23' E 010°24'8 8.0
2017-Feb-20 05:33N 64°30' E 010°33'8 8.5
2017-Feb-20 04:34N 64°37' E 010°43'9 8.5
2017-Feb-20 03:33N 64°44' E 010°56'9 8.8
2017-Feb-20 02:34N 64°50' E 011°10'8 7.9
2017-Feb-20 01:34N 64°55' E 011°24'9 8.5
2017-Feb-20 00:33N 65°01' E 011°39'9 8.8
2017-Feb-19 23:33N 65°08' E 011°49'9 8.9
2017-Feb-19 22:34N 65°17' E 011°57'9 9.2
2017-Feb-19 21:33N 65°25' E 012°08'9 8.6
2017-Feb-19 20:33N 65°33' E 012°13'9 9.1
2017-Feb-19 19:33N 65°42' E 012°17'9 8.9
2017-Feb-19 18:33N 65°51' E 012°22'8 8.4
2017-Feb-19 17:33N 65°59' E 012°28'9 9.0
2017-Feb-19 16:33N 66°06' E 012°42'9 8.9
2017-Feb-19 15:33N 66°13' E 012°53'9 8.9
2017-Feb-19 14:31N 66°22' E 012°58'9 8.8
2017-Feb-19 13:33N 66°31' E 012°58'8 7.8
2017-Feb-19 12:33N 66°38' E 013°06'9 8.7
2017-Feb-19 11:33N 66°46' E 013°13'8 8.4
2017-Feb-19 10:33N 66°53' E 013°24'8 7.9
2017-Feb-19 09:33N 66°59' E 013°37'9 8.9
2017-Feb-19 08:33N 67°05' E 013°55'9 8.5
2017-Feb-19 07:33N 67°12' E 014°06'9 8.6
2017-Feb-19 06:33N 67°19' E 014°19'8 8.5
2017-Feb-19 05:34N 67°27' E 014°28'9 8.6
2017-Feb-19 04:33N 67°36' E 014°30'8 8.5
2017-Feb-19 03:33N 67°44' E 014°31'8 7.9
2017-Feb-19 02:33N 67°51' E 014°41'8 8.3
2017-Feb-19 01:33N 67°58' E 014°52'9 8.8
2017-Feb-19 00:33N 68°04' E 015°09'9 8.7
2017-Feb-18 23:33N 68°10' E 015°26'9 8.8
2017-Feb-18 22:33N 68°16' E 015°43'9 8.8
2017-Feb-18 21:33N 68°23' E 015°59'9 9.0
2017-Feb-18 20:33N 68°31' E 016°10'8 7.7
2017-Feb-18 19:33N 68°33' E 016°30'7 7.3
2017-Feb-18 18:33N 68°40' E 016°38'8 7.7
2017-Feb-18 17:33N 68°48' E 016°37'2 1.6
2017-Feb-18 16:33N 68°48' E 016°33'0 0.0
2017-Feb-18 15:33N 68°48' E 016°33'8 7.9
2017-Feb-18 14:33N 68°53' E 016°49'9 9.0
2017-Feb-18 13:33N 68°59' E 017°09'9 8.8
2017-Feb-18 12:33N 69°05' E 017°24'9 8.8
2017-Feb-18 11:34N 69°09' E 017°47'7 6.6
2017-Feb-18 10:33N 69°14' E 017°57'8 8.0
2017-Feb-18 09:32N 69°22' E 018°06'8 7.6
2017-Feb-18 08:33N 69°29' E 018°11'9 8.7
2017-Feb-18 07:33N 69°32' E 018°34'9 8.5
2017-Feb-18 06:32N 69°37' E 018°54'6 5.6
2017-Feb-18 05:33N 69°42' E 019°01'7 7.0
2017-Feb-18 04:33N 69°47' E 019°15'8 8.3
2017-Feb-18 03:33N 69°50' E 019°38'8 8.0
2017-Feb-18 02:33N 69°54' E 019°57'7 7.2
2017-Feb-18 01:33N 69°59' E 020°14'6 6.2
2017-Feb-18 00:34N 70°01' E 020°30'6 6.2
2017-Feb-17 23:33N 70°03' E 020°48'6 5.9
2017-Feb-17 22:33N 70°07' E 020°59'8 7.7
2017-Feb-17 21:33N 70°14' E 021°10'8 8.1
2017-Feb-17 20:33N 70°19' E 021°28'7 7.2
2017-Feb-17 19:34N 70°24' E 021°45'9 8.7
2017-Feb-17 18:33N 70°20' E 022°08'9 9.1
2017-Feb-17 17:33N 70°15' E 022°32'9 9.0
2017-Feb-17 16:33N 70°13' E 022°57'9 9.1
2017-Feb-17 15:33N 70°04' E 023°07'7 6.9
2017-Feb-17 14:33N 69°58' E 023°13'0 0.0
2017-Feb-17 13:33N 69°58' E 023°13'0 0.0
2017-Feb-17 12:33N 69°58' E 023°13'0 0.0
2017-Feb-17 11:33N 69°58' E 023°13'0 0.0
2017-Feb-17 10:33N 69°58' E 023°13'0 0.0
2017-Feb-17 09:33N 69°58' E 023°13'0 0.0
2017-Feb-17 08:34N 69°58' E 023°13'0 0.0
2017-Feb-17 07:33N 69°58' E 023°13'0 0.0
2017-Feb-17 06:33N 69°58' E 023°13'0 0.0
2017-Feb-17 05:34N 69°58' E 023°13'0 0.0
2017-Feb-17 04:33N 69°58' E 023°13'0 0.0
2017-Feb-17 03:33N 69°58' E 023°13'0 0.0
2017-Feb-17 02:33N 69°58' E 023°13'0 0.0
2017-Feb-17 01:33N 69°58' E 023°13'0 0.0
2017-Feb-17 00:33N 69°58' E 023°13'2 2.0
2017-Feb-16 23:33N 69°60' E 023°11'8 7.6
2017-Feb-16 22:33N 70°07' E 023°04'8 8.1
2017-Feb-16 21:33N 70°13' E 022°50'8 8.4
2017-Feb-16 20:34N 70°16' E 022°27'9 8.7
2017-Feb-16 19:33N 70°20' E 022°04'  

Dump ship's entire track history